Time;durP1;ratioP1;P1;durP2;ratioP2;P2;SDS_P1;SDS_P2;PMS_P1;PMS_P2;Temp;Humidity;BMP_temperature;BMP_pressure;BME280_temperature;BME280_humidity;BME280_pressure;Samples;Min_cycle;Max_cycle;Signal;HPM_P1;HPM_P2
2021/12/20 00:00:46;;;;;;;111.60;25.15;;;;;;;;;;5059545;28;20066;-76
2021/12/20 00:03:14;;;;;;;73.93;20.92;;;;;;;;;;5043566;28;20333;-75
2021/12/20 00:05:40;;;;;;;82.78;23.60;;;;;;;;;;5077130;28;20029;-75
2021/12/20 00:08:06;;;;;;;86.28;27.23;;;;;;;;;;5058901;28;20111;-75
2021/12/20 00:10:33;;;;;;;106.70;25.17;;;;;;;;;;5059960;28;20371;-75
2021/12/20 00:12:59;;;;;;;86.95;24.48;;;;;;;;;;5076840;28;20021;-76
2021/12/20 00:15:25;;;;;;;108.00;24.45;;;;;;;;;;5060756;28;20040;-76
2021/12/20 00:17:51;;;;;;;119.00;25.80;;;;;;;;;;5077363;28;20021;-75
2021/12/20 00:20:18;;;;;;;93.00;30.50;;;;;;;;;;5043514;28;20414;-76
2021/12/20 00:22:46;;;;;;;106.53;27.38;;;;;;;;;;5041965;28;20032;-76
2021/12/20 00:25:13;;;;;;;92.50;26.98;;;;;;;;;;5043397;28;20045;-76
2021/12/20 00:27:39;;;;;;;118.53;28.67;;;;;;;;;;5059002;28;20047;-76
2021/12/20 00:35:55;;;;;;;98.28;25.25;;;;;;;;;;5080240;22;20053;-75
2021/12/20 00:41:06;;;;;;;79.43;25.00;;;;;;;;;;5059049;28;20398;-75
2021/12/20 00:43:32;;;;;;;106.05;27.52;;;;;;;;;;5075858;28;20029;-75
2021/12/20 00:46:01;;;;;;;83.93;28.23;;;;;;;;;;5057810;28;20050;-74
2021/12/20 00:48:26;;;;;;;117.72;30.15;;;;;;;;;;5059807;28;20019;-74
2021/12/20 00:50:52;;;;;;;97.75;27.73;;;;;;;;;;5059616;28;20024;-74
2021/12/20 00:53:18;;;;;;;91.60;27.60;;;;;;;;;;5063789;28;20020;-73
2021/12/20 00:55:45;;;;;;;110.47;29.33;;;;;;;;;;5046174;28;20513;-73
2021/12/20 00:58:11;;;;;;;91.90;26.30;;;;;;;;;;5080267;28;20016;-73
2021/12/20 01:00:39;;;;;;;80.93;26.17;;;;;;;;;;5079106;28;20020;-73
2021/12/20 01:03:05;;;;;;;113.78;29.48;;;;;;;;;;5079864;28;20021;-73
2021/12/20 01:05:32;;;;;;;110.35;26.15;;;;;;;;;;5061916;28;20187;-74
2021/12/20 01:08:01;;;;;;;105.72;23.20;;;;;;;;;;5062292;28;20073;-76
2021/12/20 01:10:29;;;;;;;79.03;24.92;;;;;;;;;;5062482;28;20048;-74
2021/12/20 01:12:56;;;;;;;78.68;21.45;;;;;;;;;;5079688;28;20020;-75
2021/12/20 01:15:47;;;;;;;81.38;21.98;;;;;;;;;;5077168;28;20039;-76
2021/12/20 01:18:13;;;;;;;97.10;25.48;;;;;;;;;;5062319;28;20430;-75
2021/12/20 01:20:41;;;;;;;122.47;26.95;;;;;;;;;;5078834;28;20021;-74
2021/12/20 01:23:09;;;;;;;119.95;24.83;;;;;;;;;;5040848;28;20040;-76
2021/12/20 01:25:35;;;;;;;81.45;27.65;;;;;;;;;;5040409;28;20023;-74
2021/12/20 01:28:16;;;;;;;97.82;25.42;;;;;;;;;;5059041;28;20040;-75
2021/12/20 01:30:49;;;;;;;93.78;27.15;;;;;;;;;;5048214;28;20035;-75
2021/12/20 01:33:22;;;;;;;107.50;26.08;;;;;;;;;;5066231;22;20044;-75
2021/12/20 01:35:58;;;;;;;101.28;24.38;;;;;;;;;;5060991;28;20086;-76
2021/12/20 01:38:26;;;;;;;80.20;26.40;;;;;;;;;;5060120;28;20020;-75
2021/12/20 01:40:59;;;;;;;92.40;25.55;;;;;;;;;;5078287;28;20381;-75
2021/12/20 01:43:37;;;;;;;96.20;28.33;;;;;;;;;;5061879;28;20055;-76
2021/12/20 01:46:21;;;;;;;112.70;31.95;;;;;;;;;;5046898;28;20020;-76
2021/12/20 01:48:48;;;;;;;125.38;33.80;;;;;;;;;;5044577;28;20017;-76
2021/12/20 01:54:18;;;;;;;110.43;33.55;;;;;;;;;;4979250;28;20408;-76
2021/12/20 01:56:46;;;;;;;124.28;41.28;;;;;;;;;;5026618;28;20078;-74
2021/12/20 01:59:12;;;;;;;104.93;30.83;;;;;;;;;;5043320;28;20028;-75
2021/12/20 02:01:42;;;;;;;108.00;32.38;;;;;;;;;;5043381;28;20382;-76
2021/12/20 02:04:13;;;;;;;109.78;32.15;;;;;;;;;;5043026;28;20357;-76
2021/12/20 02:06:40;;;;;;;109.30;30.25;;;;;;;;;;5041929;28;20031;-76
2021/12/20 02:09:10;;;;;;;96.80;28.20;;;;;;;;;;5058832;28;20017;-76
2021/12/20 02:11:40;;;;;;;100.78;27.42;;;;;;;;;;5076587;28;20019;-77
2021/12/20 02:14:06;;;;;;;133.17;33.33;;;;;;;;;;5042945;28;20021;-77
2021/12/20 02:16:34;;;;;;;88.15;28.00;;;;;;;;;;5077330;28;20291;-77
2021/12/20 02:19:08;;;;;;;120.38;32.60;;;;;;;;;;5059864;28;20059;-76
2021/12/20 02:21:35;;;;;;;120.15;26.05;;;;;;;;;;5059755;28;20021;-76
2021/12/20 02:24:04;;;;;;;85.85;22.80;;;;;;;;;;5059974;28;20031;-75
2021/12/20 02:26:31;;;;;;;108.30;25.17;;;;;;;;;;5059410;28;20017;-75
2021/12/20 02:29:05;;;;;;;84.95;23.13;;;;;;;;;;5059455;28;20311;-76
2021/12/20 02:37:18;;;;;;;106.30;27.88;;;;;;;;;;5077075;28;20029;-76
2021/12/20 02:39:47;;;;;;;110.97;29.02;;;;;;;;;;5042050;28;20021;-77
2021/12/20 02:42:25;;;;;;;108.00;27.10;;;;;;;;;;5066031;22;20351;-74
2021/12/20 02:45:00;;;;;;;109.72;35.17;;;;;;;;;;5058503;28;20366;-76
2021/12/20 02:47:29;;;;;;;97.28;27.50;;;;;;;;;;5058499;28;20449;-76
2021/12/20 02:49:58;;;;;;;102.53;29.73;;;;;;;;;;5041257;28;20387;-77
2021/12/20 02:52:25;;;;;;;86.38;22.40;;;;;;;;;;5076285;28;20015;-76
2021/12/20 02:54:53;;;;;;;71.70;20.00;;;;;;;;;;5058307;28;20067;-77
2021/12/20 02:57:20;;;;;;;104.97;24.70;;;;;;;;;;5073972;28;20020;-75
2021/12/20 02:59:49;;;;;;;79.05;20.23;;;;;;;;;;5040282;28;20073;-76
2021/12/20 03:02:16;;;;;;;85.53;19.55;;;;;;;;;;5056718;28;20170;-75
2021/12/20 03:04:42;;;;;;;70.68;22.88;;;;;;;;;;5040084;28;20016;-75
2021/12/20 03:07:09;;;;;;;71.45;22.10;;;;;;;;;;5040629;28;20026;-76
2021/12/20 03:09:38;;;;;;;84.68;22.55;;;;;;;;;;5057421;28;20413;-75
2021/12/20 03:12:06;;;;;;;96.82;23.02;;;;;;;;;;5040500;28;20028;-74
2021/12/20 03:14:37;;;;;;;85.60;22.52;;;;;;;;;;5056651;28;20008;-75
2021/12/20 03:17:05;;;;;;;90.97;20.60;;;;;;;;;;5057392;28;20036;-75
2021/12/20 03:19:31;;;;;;;67.10;20.95;;;;;;;;;;5040968;28;20016;-75
2021/12/20 03:21:59;;;;;;;68.35;18.90;;;;;;;;;;5039689;28;20048;-77
2021/12/20 03:24:27;;;;;;;62.67;17.15;;;;;;;;;;5041095;28;20021;-75
2021/12/20 03:26:55;;;;;;;64.10;18.63;;;;;;;;;;5040975;28;20017;-75
2021/12/20 03:29:23;;;;;;;72.82;21.40;;;;;;;;;;5074584;28;20048;-75
2021/12/20 03:31:50;;;;;;;63.38;20.73;;;;;;;;;;5074574;28;20094;-76
2021/12/20 03:34:19;;;;;;;57.60;17.90;;;;;;;;;;5040853;28;20484;-75
2021/12/20 03:36:47;;;;;;;51.83;18.75;;;;;;;;;;5058304;28;20046;-75
2021/12/20 03:39:22;;;;;;;63.30;14.75;;;;;;;;;;5042668;28;20024;-75
2021/12/20 03:41:59;;;;;;;56.53;16.10;;;;;;;;;;5058178;28;20050;-74
2021/12/20 03:44:32;;;;;;;50.50;15.38;;;;;;;;;;5041204;28;20103;-74
2021/12/20 03:47:01;;;;;;;68.72;22.23;;;;;;;;;;5041391;28;20105;-74
2021/12/20 03:49:29;;;;;;;45.65;17.85;;;;;;;;;;5058258;28;20024;-76
2021/12/20 03:51:55;;;;;;;51.60;18.92;;;;;;;;;;5041140;28;20024;-74
2021/12/20 03:54:28;;;;;;;63.45;26.60;;;;;;;;;;5040488;28;20018;-75
2021/12/20 03:56:55;;;;;;;47.47;19.17;;;;;;;;;;5075052;28;20033;-75
2021/12/20 03:59:22;;;;;;;37.20;16.60;;;;;;;;;;5041313;28;20323;-74
2021/12/20 04:01:50;;;;;;;33.85;18.20;;;;;;;;;;5057329;28;20025;-75
2021/12/20 04:04:30;;;;;;;48.42;16.33;;;;;;;;;;5058042;28;20025;-74
2021/12/20 04:06:57;;;;;;;40.03;14.55;;;;;;;;;;5040354;28;20073;-75
2021/12/20 04:09:23;;;;;;;37.03;14.18;;;;;;;;;;5040209;28;20016;-74
2021/12/20 04:11:49;;;;;;;43.45;12.85;;;;;;;;;;5075072;28;20355;-74
2021/12/20 04:14:15;;;;;;;28.83;14.18;;;;;;;;;;5070266;28;20148;-74
2021/12/20 04:16:41;;;;;;;30.33;12.55;;;;;;;;;;5074328;28;20131;-73
2021/12/20 04:19:07;;;;;;;40.47;13.25;;;;;;;;;;5056063;28;20016;-75
2021/12/20 04:21:35;;;;;;;47.35;16.80;;;;;;;;;;5074137;28;20036;-74
2021/12/20 04:24:01;;;;;;;59.92;20.23;;;;;;;;;;5055119;28;20426;-75
2021/12/20 04:26:27;;;;;;;51.63;18.60;;;;;;;;;;5072713;28;20020;-75
2021/12/20 04:28:53;;;;;;;50.67;15.43;;;;;;;;;;5075831;28;20028;-74
2021/12/20 04:31:32;;;;;;;70.75;18.90;;;;;;;;;;5075656;28;20105;-74
2021/12/20 04:34:33;;;;;;;55.83;16.92;;;;;;;;;;5039109;28;20111;-76
2021/12/20 04:37:08;;;;;;;65.80;17.98;;;;;;;;;;5041498;28;20035;-75
2021/12/20 04:39:50;;;;;;;65.32;19.00;;;;;;;;;;5038472;28;20571;-75
2021/12/20 04:42:32;;;;;;;74.68;19.70;;;;;;;;;;5026483;28;20040;-74
2021/12/20 04:45:09;;;;;;;69.60;17.58;;;;;;;;;;5058029;28;20025;-74
2021/12/20 04:48:01;;;;;;;39.70;15.68;;;;;;;;;;5059474;28;20028;-76
2021/12/20 04:50:42;;;;;;;56.30;16.95;;;;;;;;;;5043819;28;20087;-76
2021/12/20 04:53:30;;;;;;;55.92;15.88;;;;;;;;;;5017287;28;20033;-76
2021/12/20 04:56:03;;;;;;;62.25;19.13;;;;;;;;;;5018436;28;20111;-74
2021/12/20 04:58:43;;;;;;;59.95;23.77;;;;;;;;;;5001702;28;20112;-74
2021/12/20 05:01:40;;;;;;;75.00;26.70;;;;;;;;;;5007006;28;20041;-74
2021/12/20 05:04:18;;;;;;;53.17;16.58;;;;;;;;;;5019154;28;20041;-75
2021/12/20 05:06:57;;;;;;;69.90;18.38;;;;;;;;;;5000954;28;20096;-76
2021/12/20 05:10:01;;;;;;;74.07;22.70;;;;;;;;;;4999107;28;20030;-75
2021/12/20 05:12:34;;;;;;;47.03;18.02;;;;;;;;;;5020601;28;20040;-75
2021/12/20 05:15:07;;;;;;;55.63;20.48;;;;;;;;;;5018383;28;20439;-76
2021/12/20 05:18:04;;;;;;;60.40;18.42;;;;;;;;;;5001187;28;20025;-76
2021/12/20 05:20:54;;;;;;;54.13;15.00;;;;;;;;;;4999352;28;20378;-76
2021/12/20 05:23:26;;;;;;;58.83;17.35;;;;;;;;;;5000823;28;20018;-75
2021/12/20 05:26:08;;;;;;;67.22;20.13;;;;;;;;;;5001573;28;20456;-76
2021/12/20 05:28:51;;;;;;;79.43;18.58;;;;;;;;;;5001917;28;20068;-75
2021/12/20 05:31:21;;;;;;;76.10;19.73;;;;;;;;;;5018446;28;20045;-75
2021/12/20 05:34:01;;;;;;;57.72;17.85;;;;;;;;;;5000816;28;20029;-76
2021/12/20 05:36:35;;;;;;;61.35;19.40;;;;;;;;;;5000513;28;20419;-74
2021/12/20 05:39:43;;;;;;;64.22;19.88;;;;;;;;;;5003350;28;20024;-76
2021/12/20 05:42:21;;;;;;;67.13;19.85;;;;;;;;;;5055379;22;20056;-74
2021/12/20 05:44:55;;;;;;;78.65;19.23;;;;;;;;;;5042232;28;20033;-76
2021/12/20 05:48:18;;;;;;;58.30;16.90;;;;;;;;;;5060373;28;20358;-75
2021/12/20 05:51:07;;;;;;;69.97;19.52;;;;;;;;;;5043357;28;20027;-77
2021/12/20 05:54:12;;;;;;;56.78;19.42;;;;;;;;;;5071751;28;20501;-76
2021/12/20 05:57:01;;;;;;;69.28;19.15;;;;;;;;;;5046743;22;20392;-76
2021/12/20 06:00:23;;;;;;;69.63;18.77;;;;;;;;;;5056081;28;20035;-76
2021/12/20 06:03:32;;;;;;;69.88;17.67;;;;;;;;;;5071890;28;20410;-76
2021/12/20 06:09:18;;;;;;;64.50;21.38;;;;;;;;;;5044911;23;20110;-78
2021/12/20 06:11:44;;;;;;;61.25;15.73;;;;;;;;;;5122993;22;20130;-78
2021/12/20 06:14:10;;;;;;;66.43;16.85;;;;;;;;;;5078784;28;20017;-78
2021/12/20 06:16:36;;;;;;;66.85;14.38;;;;;;;;;;5077935;28;20033;-78
2021/12/20 06:19:05;;;;;;;47.70;17.23;;;;;;;;;;5060773;28;20021;-77
2021/12/20 06:21:32;;;;;;;60.53;14.02;;;;;;;;;;5059399;28;20044;-77
2021/12/20 06:23:58;;;;;;;70.40;15.80;;;;;;;;;;5077513;28;20106;-78
2021/12/20 06:26:23;;;;;;;72.55;21.27;;;;;;;;;;5062856;28;20500;-77
2021/12/20 06:28:50;;;;;;;69.00;18.38;;;;;;;;;;5058895;28;20103;-77
2021/12/20 06:31:17;;;;;;;59.58;16.40;;;;;;;;;;5043711;28;20021;-77
2021/12/20 06:33:44;;;;;;;72.65;21.50;;;;;;;;;;5077247;28;20103;-77
2021/12/20 06:36:10;;;;;;;71.13;18.35;;;;;;;;;;5078731;28;20024;-78
2021/12/20 06:38:43;;;;;;;75.00;18.95;;;;;;;;;;5060224;28;20013;-77
2021/12/20 06:41:09;;;;;;;54.83;20.17;;;;;;;;;;5045148;28;20033;-77
2021/12/20 06:43:35;;;;;;;69.15;20.90;;;;;;;;;;5077619;28;20017;-77
2021/12/20 06:46:01;;;;;;;53.00;15.48;;;;;;;;;;5092242;22;20049;-77
2021/12/20 06:48:27;;;;;;;70.93;20.08;;;;;;;;;;5077229;28;20025;-77
2021/12/20 06:51:13;;;;;;;61.75;19.25;;;;;;;;;;5067200;22;20396;-76
2021/12/20 06:53:39;;;;;;;55.80;14.20;;;;;;;;;;5074631;28;20115;-77
2021/12/20 06:56:05;;;;;;;57.33;18.98;;;;;;;;;;5075218;28;20025;-76
2021/12/20 06:58:31;;;;;;;86.03;19.15;;;;;;;;;;5081406;22;20036;-78
2021/12/20 07:01:00;;;;;;;70.03;16.45;;;;;;;;;;5056024;28;20047;-77
2021/12/20 07:03:26;;;;;;;84.55;22.95;;;;;;;;;;5053788;28;20024;-77
2021/12/20 07:05:52;;;;;;;72.53;22.75;;;;;;;;;;5038076;28;20021;-76
2021/12/20 07:08:18;;;;;;;76.43;20.45;;;;;;;;;;5037909;28;20488;-75
2021/12/20 07:10:44;;;;;;;61.33;16.40;;;;;;;;;;5055388;28;20029;-75
2021/12/20 07:13:11;;;;;;;74.15;18.75;;;;;;;;;;5057672;28;20058;-76
2021/12/20 07:15:38;;;;;;;71.13;19.75;;;;;;;;;;5039039;28;20036;-75
2021/12/20 07:18:05;;;;;;;68.40;17.58;;;;;;;;;;5055719;28;20029;-77
2021/12/20 07:20:31;;;;;;;80.10;17.90;;;;;;;;;;5060771;22;20040;-76
2021/12/20 07:22:57;;;;;;;77.43;21.77;;;;;;;;;;5076185;28;20017;-76
2021/12/20 07:25:23;;;;;;;75.45;22.42;;;;;;;;;;5075299;28;20212;-76
2021/12/20 07:27:50;;;;;;;87.13;20.20;;;;;;;;;;5057276;28;20059;-76
2021/12/20 07:30:18;;;;;;;84.00;21.85;;;;;;;;;;5074851;28;20032;-76
2021/12/20 07:32:44;;;;;;;62.50;19.23;;;;;;;;;;5057885;28;20024;-76
2021/12/20 07:35:10;;;;;;;67.80;17.30;;;;;;;;;;5075578;28;20410;-77
2021/12/20 07:37:36;;;;;;;90.63;27.13;;;;;;;;;;5047889;23;20450;-77
2021/12/20 07:40:07;;;;;;;62.03;17.08;;;;;;;;;;5075891;28;20071;-79
2021/12/20 07:42:33;;;;;;;;;;;;;;;;;;5061055;28;20048;-78
2021/12/20 07:44:59;;;;;;;56.78;18.55;;;;;;;;;;5077435;28;19912;-78
2021/12/20 07:47:25;;;;;;;41.50;9.90;;;;;;;;;;5061425;28;20039;-77
2021/12/20 07:49:52;;;;;;;57.05;18.80;;;;;;;;;;5101091;22;20379;-77
2021/12/20 07:52:18;;;;;;;54.63;14.35;;;;;;;;;;5144217;22;20036;-77
2021/12/20 07:54:44;;;;;;;54.08;14.18;;;;;;;;;;5079589;28;20039;-77
2021/12/20 07:57:10;;;;;;;75.53;20.23;;;;;;;;;;5059044;28;20033;-77
2021/12/20 07:59:36;;;;;;;58.15;14.98;;;;;;;;;;5059510;28;20326;-78
2021/12/20 08:02:02;;;;;;;61.30;15.48;;;;;;;;;;5057796;28;20027;-78
2021/12/20 08:04:28;;;;;;;66.72;18.70;;;;;;;;;;5076347;28;20021;-78
2021/12/20 08:06:54;;;;;;;67.82;15.65;;;;;;;;;;5079141;28;20004;-77
2021/12/20 08:09:20;;;;;;;52.47;19.10;;;;;;;;;;5076467;28;20368;-77
2021/12/20 08:11:47;;;;;;;42.33;12.40;;;;;;;;;;5097679;22;20039;-77
2021/12/20 08:14:13;;;;;;;39.70;12.68;;;;;;;;;;5061751;28;20020;-77
2021/12/20 08:16:40;;;;;;;64.25;16.70;;;;;;;;;;5207709;22;20340;-80
2021/12/20 08:26:07;;;;;;;47.85;15.40;;;;;;;;;;5066106;28;20387;-77
2021/12/20 08:28:54;;;;;;;46.30;14.77;;;;;;;;;;5056117;28;20029;-75
2021/12/20 08:41:11;;;;;;;35.47;12.25;;;;;;;;;;5076371;22;20043;-77
2021/12/20 08:43:44;;;;;;;68.50;17.30;;;;;;;;;;5056494;28;20334;-76
2021/12/20 08:46:23;;;;;;;56.78;17.23;;;;;;;;;;5039228;28;20123;-76
2021/12/20 08:49:08;;;;;;;52.45;16.38;;;;;;;;;;5055709;28;20033;-76
2021/12/20 08:52:01;;;;;;;49.17;13.77;;;;;;;;;;5049870;28;20336;-76
2021/12/20 08:54:37;;;;;;;;;;;;;;;;;;5041076;28;20028;-77
2021/12/20 08:57:29;;;;;;;31.00;9.23;;;;;;;;;;5076492;22;19966;-76
2021/12/20 09:03:18;;;;;;;51.75;14.20;;;;;;;;;;5074257;22;20033;-77
2021/12/20 09:06:14;;;;;;;50.53;13.82;;;;;;;;;;5047845;22;20037;-76
2021/12/20 09:09:01;;;;;;;42.53;11.23;;;;;;;;;;5069875;28;20025;-78
2021/12/20 09:11:38;;;;;;;54.00;15.93;;;;;;;;;;5054309;28;20035;-77
2021/12/20 09:14:13;;;;;;;37.30;11.85;;;;;;;;;;5058982;28;20024;-73
2021/12/20 09:17:08;;;;;;;52.60;15.23;;;;;;;;;;5058499;22;20044;-78
2021/12/20 09:20:04;;;;;;;35.72;12.65;;;;;;;;;;5023243;28;20091;-78
2021/12/20 09:25:51;;;;;;;39.03;13.27;;;;;;;;;;5075779;28;20119;-77
2021/12/20 09:28:36;;;;;;;40.38;13.07;;;;;;;;;;5051353;22;20131;-74
2021/12/20 09:31:45;;;;;;;36.53;11.90;;;;;;;;;;5055212;28;20048;-76
2021/12/20 09:34:45;;;;;;;62.33;16.83;;;;;;;;;;5025516;28;20034;-77
2021/12/20 09:37:53;;;;;;;49.00;16.13;;;;;;;;;;5038890;28;20055;-77
2021/12/20 09:41:01;;;;;;;41.25;13.57;;;;;;;;;;5034063;28;20051;-76
2021/12/20 09:44:18;;;;;;;60.85;16.88;;;;;;;;;;5011648;28;20423;-75
2021/12/20 09:47:11;;;;;;;44.08;14.40;;;;;;;;;;5020715;28;20037;-75
2021/12/20 09:49:43;;;;;;;57.28;15.07;;;;;;;;;;5040539;28;20032;-75
2021/12/20 09:52:28;;;;;;;35.97;11.55;;;;;;;;;;5037189;28;20036;-75
2021/12/20 09:55:15;;;;;;;48.25;13.02;;;;;;;;;;5039023;28;20029;-76
2021/12/20 09:57:54;;;;;;;40.22;14.98;;;;;;;;;;5062316;22;20029;-75
2021/12/20 10:00:51;;;;;;;40.92;13.40;;;;;;;;;;5021063;28;20468;-76
2021/12/20 10:03:30;;;;;;;33.47;10.18;;;;;;;;;;5040143;28;20032;-74
2021/12/20 10:06:27;;;;;;;50.13;13.57;;;;;;;;;;5015900;28;20025;-75
2021/12/20 10:09:15;;;;;;;44.15;11.75;;;;;;;;;;5040069;28;20021;-75
2021/12/20 10:11:51;;;;;;;42.10;12.48;;;;;;;;;;5040615;28;20025;-75
2021/12/20 10:14:21;;;;;;;54.10;14.40;;;;;;;;;;5040731;28;20028;-77
2021/12/20 10:17:21;;;;;;;48.38;13.30;;;;;;;;;;5055427;28;20052;-77
2021/12/20 10:20:24;;;;;;;48.78;12.38;;;;;;;;;;5038851;28;20032;-76
2021/12/20 10:23:33;;;;;;;28.33;11.30;;;;;;;;;;5035360;26;20037;-75
2021/12/20 10:26:19;;;;;;;61.85;14.27;;;;;;;;;;5003406;28;20022;-75
2021/12/20 10:29:17;;;;;;;53.85;13.80;;;;;;;;;;5001437;28;20029;-75
2021/12/20 10:31:49;;;;;;;42.67;14.13;;;;;;;;;;5020627;28;20010;-76
2021/12/20 10:34:18;;;;;;;40.85;14.60;;;;;;;;;;5019976;28;20025;-77
2021/12/20 10:36:54;;;;;;;43.72;12.32;;;;;;;;;;5021101;28;20260;-75
2021/12/20 10:39:38;;;;;;;36.00;12.38;;;;;;;;;;5020102;28;20404;-76
2021/12/20 10:42:14;;;;;;;38.63;15.10;;;;;;;;;;5020728;28;20028;-75
2021/12/20 10:44:41;;;;;;;43.65;14.10;;;;;;;;;;5004712;28;20032;-76
2021/12/20 10:47:23;;;;;;;30.90;11.05;;;;;;;;;;5021159;28;20028;-76
2021/12/20 10:49:49;;;;;;;32.72;12.35;;;;;;;;;;5004669;28;20029;-75
2021/12/20 10:52:25;;;;;;;27.75;7.80;;;;;;;;;;5038028;28;20025;-75
2021/12/20 10:54:51;;;;;;;39.47;14.27;;;;;;;;;;5004471;28;20018;-76
2021/12/20 10:57:26;;;;;;;31.80;10.50;;;;;;;;;;5020536;28;20040;-76
2021/12/20 11:00:12;;;;;;;60.95;17.20;;;;;;;;;;5004513;28;20413;-75
2021/12/20 11:06:08;;;;;;;32.72;12.70;;;;;;;;;;5021107;28;20032;-76
2021/12/20 11:11:14;;;;;;;30.70;11.95;;;;;;;;;;5038196;28;20056;-76
2021/12/20 11:13:40;;;;;;;39.72;11.43;;;;;;;;;;5019887;28;20480;-76
2021/12/20 11:16:26;;;;;;;45.70;17.75;;;;;;;;;;5020029;28;20335;-76
2021/12/20 11:19:07;;;;;;;47.53;13.10;;;;;;;;;;5003585;28;20342;-76
2021/12/20 11:21:35;;;;;;;38.92;15.55;;;;;;;;;;5003504;28;20494;-77
2021/12/20 11:24:01;;;;;;;50.58;15.40;;;;;;;;;;5019661;28;20068;-76
2021/12/20 11:26:28;;;;;;;40.50;15.75;;;;;;;;;;5019945;28;20025;-75
2021/12/20 11:28:57;;;;;;;46.63;14.18;;;;;;;;;;5019873;28;20104;-76
2021/12/20 11:31:24;;;;;;;31.45;12.65;;;;;;;;;;5019982;28;20045;-76
2021/12/20 11:33:50;;;;;;;43.25;15.65;;;;;;;;;;5003471;28;20163;-76
2021/12/20 11:36:18;;;;;;;34.97;12.15;;;;;;;;;;5003139;28;20196;-75
2021/12/20 11:38:44;;;;;;;39.60;13.48;;;;;;;;;;5003648;28;20142;-75
2021/12/20 11:41:13;;;;;;;32.05;14.75;;;;;;;;;;5003809;28;20029;-76
2021/12/20 11:43:40;;;;;;;56.08;17.10;;;;;;;;;;5003654;28;20438;-76
2021/12/20 11:46:14;;;;;;;39.97;14.43;;;;;;;;;;5003240;28;20029;-76
2021/12/20 11:48:43;;;;;;;43.08;16.33;;;;;;;;;;5036525;28;20132;-77
2021/12/20 11:51:11;;;;;;;46.72;13.73;;;;;;;;;;5003542;28;20025;-77
2021/12/20 11:53:42;;;;;;;59.80;18.08;;;;;;;;;;5019545;28;20024;-76
2021/12/20 11:56:08;;;;;;;38.90;16.30;;;;;;;;;;5036083;28;20034;-76
2021/12/20 11:58:37;;;;;;;48.60;14.90;;;;;;;;;;5002858;28;20021;-76
2021/12/20 12:01:19;;;;;;;33.75;13.65;;;;;;;;;;5019711;28;20045;-76
2021/12/20 12:03:53;;;;;;;31.85;14.18;;;;;;;;;;5002826;28;20442;-75
2021/12/20 12:06:26;;;;;;;33.20;12.07;;;;;;;;;;5019650;28;20116;-76
2021/12/20 12:08:59;;;;;;;40.72;12.18;;;;;;;;;;5019010;28;20125;-76
2021/12/20 12:11:31;;;;;;;38.55;14.70;;;;;;;;;;5003271;28;20029;-75
2021/12/20 12:14:02;;;;;;;44.58;16.25;;;;;;;;;;5002927;28;20040;-75
2021/12/20 12:16:47;;;;;;;62.53;24.98;;;;;;;;;;5002775;28;20033;-75
2021/12/20 12:19:37;;;;;;;46.00;18.10;;;;;;;;;;5018886;28;20419;-76
2021/12/20 12:22:24;;;;;;;47.45;16.98;;;;;;;;;;5019324;28;20030;-75
2021/12/20 12:24:57;;;;;;;46.97;14.95;;;;;;;;;;5036789;28;20029;-76
2021/12/20 12:27:26;;;;;;;38.75;15.10;;;;;;;;;;5003597;28;20036;-76
2021/12/20 12:30:12;;;;;;;36.67;15.80;;;;;;;;;;5003960;28;20018;-77
2021/12/20 12:32:58;;;;;;;36.92;14.00;;;;;;;;;;5019749;28;20079;-77
2021/12/20 12:35:39;;;;;;;31.50;13.43;;;;;;;;;;5006468;28;20340;-76
2021/12/20 12:38:14;;;;;;;45.40;14.57;;;;;;;;;;5019737;28;20029;-76
2021/12/20 12:40:40;;;;;;;37.08;17.85;;;;;;;;;;5019674;28;20108;-76
2021/12/20 12:43:07;;;;;;;38.03;17.38;;;;;;;;;;5062628;22;20166;-75
2021/12/20 12:45:48;;;;;;;42.38;17.55;;;;;;;;;;5022637;28;20017;-75
2021/12/20 12:48:38;;;;;;;46.70;19.58;;;;;;;;;;5040861;28;20021;-76
2021/12/20 12:51:27;;;;;;;45.38;17.65;;;;;;;;;;5042971;28;20112;-76
2021/12/20 12:53:55;;;;;;;43.05;13.50;;;;;;;;;;5042939;28;20123;-75
2021/12/20 12:56:28;;;;;;;49.95;19.10;;;;;;;;;;5042208;28;20040;-76
2021/12/20 12:59:14;;;;;;;45.33;16.73;;;;;;;;;;5026490;28;20021;-76
2021/12/20 13:01:51;;;;;;;45.13;17.85;;;;;;;;;;5060524;28;20107;-76
2021/12/20 13:04:18;;;;;;;44.88;19.70;;;;;;;;;;5026176;28;20021;-77
2021/12/20 13:06:47;;;;;;;37.38;14.30;;;;;;;;;;5026316;28;20021;-76
2021/12/20 13:09:13;;;;;;;35.95;16.98;;;;;;;;;;5042312;28;20023;-76
2021/12/20 13:11:39;;;;;;;31.90;14.80;;;;;;;;;;5060456;28;20051;-75
2021/12/20 13:14:09;;;;;;;24.17;11.85;;;;;;;;;;5042063;28;20063;-75
2021/12/20 13:16:42;;;;;;;28.70;13.13;;;;;;;;;;5042394;28;20338;-77
2021/12/20 13:19:10;;;;;;;25.42;14.57;;;;;;;;;;5026322;28;20017;-77
2021/12/20 13:21:49;;;;;;;24.98;12.75;;;;;;;;;;5043150;28;20469;-76
2021/12/20 13:24:17;;;;;;;24.80;11.82;;;;;;;;;;5026314;28;20115;-77
2021/12/20 13:26:43;;;;;;;23.42;12.00;;;;;;;;;;5042145;28;20032;-76
2021/12/20 13:29:14;;;;;;;33.90;13.57;;;;;;;;;;5026128;28;20115;-75
2021/12/20 13:31:40;;;;;;;;;;;;;;;;;;5059952;28;20090;-76
2021/12/20 13:34:11;;;;;;;24.77;12.65;;;;;;;;;;5060010;28;20301;-76
2021/12/20 13:36:38;;;;;;;35.17;15.02;;;;;;;;;;5025346;28;20090;-76
2021/12/20 13:39:08;;;;;;;26.50;13.43;;;;;;;;;;5042541;28;20020;-77
2021/12/20 13:41:36;;;;;;;26.38;12.18;;;;;;;;;;5042243;28;20028;-76
2021/12/20 13:44:05;;;;;;;27.40;12.77;;;;;;;;;;5024947;28;20021;-74
2021/12/20 13:49:06;;;;;;;26.63;10.68;;;;;;;;;;5042643;28;20525;-77
2021/12/20 13:51:38;;;;;;;25.95;11.07;;;;;;;;;;5041780;28;20041;-76
2021/12/20 13:54:15;;;;;;;24.17;11.60;;;;;;;;;;5041820;28;20028;-75
2021/12/20 13:56:44;;;;;;;25.52;11.90;;;;;;;;;;5042267;28;20040;-76
2021/12/20 13:59:16;;;;;;;25.63;12.93;;;;;;;;;;5024956;28;20124;-77
2021/12/20 14:01:42;;;;;;;25.63;10.77;;;;;;;;;;5025551;28;20028;-75
2021/12/20 14:04:12;;;;;;;29.45;14.43;;;;;;;;;;5041582;28;20111;-77
2021/12/20 14:06:42;;;;;;;24.55;14.00;;;;;;;;;;5042037;28;20443;-76
2021/12/20 14:09:21;;;;;;;28.38;14.25;;;;;;;;;;5025311;28;20052;-76
2021/12/20 14:11:47;;;;;;;35.92;13.27;;;;;;;;;;5025068;28;20017;-76
2021/12/20 14:14:14;;;;;;;33.22;16.33;;;;;;;;;;5024408;28;20021;-75
2021/12/20 14:16:59;;;;;;;29.15;15.38;;;;;;;;;;5041781;28;20382;-76
2021/12/20 14:19:45;;;;;;;37.30;19.40;;;;;;;;;;5025170;28;20052;-76
2021/12/20 14:22:12;;;;;;;36.53;17.58;;;;;;;;;;5024942;28;20025;-76
2021/12/20 14:24:38;;;;;;;40.90;20.45;;;;;;;;;;5024654;28;20021;-77
2021/12/20 14:27:05;;;;;;;43.35;21.95;;;;;;;;;;5041195;28;20023;-76
2021/12/20 14:29:32;;;;;;;47.85;25.30;;;;;;;;;;5024799;28;20061;-76
2021/12/20 14:32:00;;;;;;;69.38;36.20;;;;;;;;;;5059344;28;20028;-76
2021/12/20 14:34:30;;;;;;;98.78;47.40;;;;;;;;;;5024892;28;20045;-77
2021/12/20 14:37:07;;;;;;;103.30;48.88;;;;;;;;;;5058908;28;20054;-76
2021/12/20 14:39:42;;;;;;;88.18;47.42;;;;;;;;;;5025269;28;20048;-76
2021/12/20 14:42:08;;;;;;;92.35;47.70;;;;;;;;;;5024327;28;20025;-75
2021/12/20 14:44:44;;;;;;;89.88;44.03;;;;;;;;;;5041279;28;20083;-76
2021/12/20 14:47:21;;;;;;;72.45;37.97;;;;;;;;;;5024478;28;20327;-76
2021/12/20 14:49:55;;;;;;;77.65;38.10;;;;;;;;;;5024624;28;20472;-75
2021/12/20 14:52:28;;;;;;;76.90;37.08;;;;;;;;;;5024859;28;20036;-75
2021/12/20 14:54:55;;;;;;;72.55;38.53;;;;;;;;;;5058167;28;20026;-75
2021/12/20 14:57:22;;;;;;;75.90;40.75;;;;;;;;;;5024360;28;20037;-75
2021/12/20 14:59:51;;;;;;;82.72;40.30;;;;;;;;;;5058730;28;20031;-75
2021/12/20 15:02:38;;;;;;;92.40;45.90;;;;;;;;;;5041313;28;20025;-76
2021/12/20 15:05:06;;;;;;;108.05;52.88;;;;;;;;;;5024206;28;20021;-75
2021/12/20 15:07:32;;;;;;;91.50;48.05;;;;;;;;;;5024500;28;20021;-75
2021/12/20 15:10:00;;;;;;;106.72;48.85;;;;;;;;;;5058475;28;20052;-75
2021/12/20 15:12:31;;;;;;;113.78;47.65;;;;;;;;;;5024621;28;20021;-75
2021/12/20 15:14:58;;;;;;;108.00;47.58;;;;;;;;;;5040659;28;20017;-75
2021/12/20 15:17:24;;;;;;;114.00;48.90;;;;;;;;;;5057901;28;20435;-75
2021/12/20 15:19:50;;;;;;;98.07;45.67;;;;;;;;;;5024070;28;20024;-75
2021/12/20 15:22:17;;;;;;;112.15;48.30;;;;;;;;;;5057818;28;20021;-75
2021/12/20 15:24:43;;;;;;;108.60;47.95;;;;;;;;;;5058330;28;20023;-75
2021/12/20 15:27:11;;;;;;;112.13;52.45;;;;;;;;;;5040165;28;20055;-75
2021/12/20 15:29:38;;;;;;;128.13;60.60;;;;;;;;;;5023455;28;20021;-76
2021/12/20 15:32:04;;;;;;;142.07;58.35;;;;;;;;;;5058191;28;20024;-76
2021/12/20 15:34:31;;;;;;;119.18;58.08;;;;;;;;;;5039410;28;20036;-75
2021/12/20 15:36:57;;;;;;;133.60;61.47;;;;;;;;;;5039752;28;20076;-76
2021/12/20 15:39:24;;;;;;;125.78;58.50;;;;;;;;;;5039856;28;20021;-76
2021/12/20 15:41:57;;;;;;;109.13;54.63;;;;;;;;;;5023489;28;20072;-76
2021/12/20 15:44:26;;;;;;;115.45;53.20;;;;;;;;;;5023656;28;20020;-76